sensor_id;sensor_type;location;lat;lon;timestamp;pressure;altitude;pressure_sealevel;temperature;humidity
12757;BME280;31601;48.042;12.240;2022-12-07T00:01:06;96116.41;;;5.37;69.85
12757;BME280;31601;48.042;12.240;2022-12-07T00:03:34;96115.47;;;5.38;70.01
12757;BME280;31601;48.042;12.240;2022-12-07T00:06:04;96123.34;;;5.28;69.87
12757;BME280;31601;48.042;12.240;2022-12-07T00:08:33;96118.41;;;5.17;69.95
12757;BME280;31601;48.042;12.240;2022-12-07T00:11:02;96117.91;;;5.13;70.49
12757;BME280;31601;48.042;12.240;2022-12-07T00:13:31;96116.19;;;4.78;71.22
12757;BME280;31601;48.042;12.240;2022-12-07T00:16:03;96122.50;;;4.75;71.23
12757;BME280;31601;48.042;12.240;2022-12-07T00:18:30;96121.00;;;4.91;70.64
12757;BME280;31601;48.042;12.240;2022-12-07T00:21:02;96109.53;;;5.01;70.35
12757;BME280;31601;48.042;12.240;2022-12-07T00:23:30;96110.53;;;5.00;70.18
12757;BME280;31601;48.042;12.240;2022-12-07T00:26:03;96107.47;;;5.05;70.61
12757;BME280;31601;48.042;12.240;2022-12-07T00:28:30;96109.16;;;5.14;69.95
12757;BME280;31601;48.042;12.240;2022-12-07T00:31:03;96110.31;;;5.20;69.71
12757;BME280;31601;48.042;12.240;2022-12-07T00:33:31;96106.25;;;5.17;70.11
12757;BME280;31601;48.042;12.240;2022-12-07T00:35:59;96107.16;;;5.08;70.06
12757;BME280;31601;48.042;12.240;2022-12-07T00:38:28;96100.06;;;5.18;69.41
12757;BME280;31601;48.042;12.240;2022-12-07T00:40:56;96106.13;;;5.27;69.21
12757;BME280;31601;48.042;12.240;2022-12-07T00:43:23;96106.84;;;5.11;69.44
12757;BME280;31601;48.042;12.240;2022-12-07T00:45:50;96103.34;;;5.20;69.21
12757;BME280;31601;48.042;12.240;2022-12-07T00:48:19;96108.47;;;5.12;69.89
12757;BME280;31601;48.042;12.240;2022-12-07T00:50:46;96106.03;;;5.11;69.88
12757;BME280;31601;48.042;12.240;2022-12-07T00:53:13;96100.06;;;5.18;69.79
12757;BME280;31601;48.042;12.240;2022-12-07T00:55:41;96106.84;;;5.11;69.76
12757;BME280;31601;48.042;12.240;2022-12-07T00:58:08;96105.09;;;5.20;69.38
12757;BME280;31601;48.042;12.240;2022-12-07T01:00:38;96108.16;;;5.15;69.97
12757;BME280;31601;48.042;12.240;2022-12-07T01:03:05;96101.03;;;5.17;69.56
12757;BME280;31601;48.042;12.240;2022-12-07T01:05:34;96096.19;;;5.23;69.19
12757;BME280;31601;48.042;12.240;2022-12-07T01:08:01;96096.69;;;5.26;69.40
12757;BME280;31601;48.042;12.240;2022-12-07T01:10:28;96100.06;;;5.18;69.54
12757;BME280;31601;48.042;12.240;2022-12-07T01:12:57;96091.78;;;5.23;69.24
12757;BME280;31601;48.042;12.240;2022-12-07T01:15:24;96096.03;;;5.24;69.44
12757;BME280;31601;48.042;12.240;2022-12-07T01:17:51;96100.16;;;5.09;69.83
12757;BME280;31601;48.042;12.240;2022-12-07T01:20:19;96097.69;;;4.99;69.38
12757;BME280;31601;48.042;12.240;2022-12-07T01:22:48;96099.81;;;5.04;68.95
12757;BME280;31601;48.042;12.240;2022-12-07T01:25:15;96103.56;;;5.09;68.97
12757;BME280;31601;48.042;12.240;2022-12-07T01:27:44;96099.06;;;5.11;68.94
12757;BME280;31601;48.042;12.240;2022-12-07T01:30:12;96096.03;;;4.98;68.88
12757;BME280;31601;48.042;12.240;2022-12-07T01:32:39;96104.41;;;5.10;68.66
12757;BME280;31601;48.042;12.240;2022-12-07T01:35:07;96095.63;;;5.11;68.77
12757;BME280;31601;48.042;12.240;2022-12-07T01:37:35;96089.31;;;5.13;68.85
12757;BME280;31601;48.042;12.240;2022-12-07T01:40:06;96093.25;;;5.17;68.50
12757;BME280;31601;48.042;12.240;2022-12-07T01:42:34;96101.38;;;5.23;68.72
12757;BME280;31601;48.042;12.240;2022-12-07T01:45:37;96091.94;;;5.22;68.29
12757;BME280;31601;48.042;12.240;2022-12-07T01:48:05;96097.97;;;4.96;69.07
12757;BME280;31601;48.042;12.240;2022-12-07T01:50:35;96100.50;;;4.88;69.16
12757;BME280;31601;48.042;12.240;2022-12-07T01:53:04;96089.09;;;4.80;69.53
12757;BME280;31601;48.042;12.240;2022-12-07T01:55:37;96094.63;;;5.04;69.05
12757;BME280;31601;48.042;12.240;2022-12-07T01:58:05;96098.69;;;4.62;69.98
12757;BME280;31601;48.042;12.240;2022-12-07T02:00:32;96090.97;;;4.16;70.87
12757;BME280;31601;48.042;12.240;2022-12-07T02:03:03;96081.41;;;4.53;69.86
12757;BME280;31601;48.042;12.240;2022-12-07T02:05:31;96081.47;;;4.43;70.03
12757;BME280;31601;48.042;12.240;2022-12-07T02:07:59;96088.81;;;4.11;70.66
12757;BME280;31601;48.042;12.240;2022-12-07T02:10:28;96088.63;;;3.95;70.98
12757;BME280;31601;48.042;12.240;2022-12-07T02:12:59;96090.66;;;3.73;71.49
12757;BME280;31601;48.042;12.240;2022-12-07T02:15:36;96088.94;;;3.64;71.83
12757;BME280;31601;48.042;12.240;2022-12-07T02:18:14;96095.25;;;3.80;71.94
12757;BME280;31601;48.042;12.240;2022-12-07T02:20:46;96090.22;;;3.78;71.96
12757;BME280;31601;48.042;12.240;2022-12-07T02:23:38;96089.09;;;4.08;71.15
12757;BME280;31601;48.042;12.240;2022-12-07T02:26:21;96087.09;;;4.02;70.69
12757;BME280;31601;48.042;12.240;2022-12-07T02:29:08;96086.16;;;3.75;72.06
12757;BME280;31601;48.042;12.240;2022-12-07T02:31:41;96081.84;;;3.84;71.91
12757;BME280;31601;48.042;12.240;2022-12-07T02:34:14;96078.53;;;3.92;71.74
12757;BME280;31601;48.042;12.240;2022-12-07T02:36:49;96088.53;;;3.87;71.91
12757;BME280;31601;48.042;12.240;2022-12-07T02:39:23;96081.63;;;3.78;72.08
12757;BME280;31601;48.042;12.240;2022-12-07T02:41:55;96086.97;;;4.22;71.05
12757;BME280;31601;48.042;12.240;2022-12-07T02:44:26;96088.28;;;4.26;70.65
12757;BME280;31601;48.042;12.240;2022-12-07T02:46:57;96079.84;;;4.42;70.45
12757;BME280;31601;48.042;12.240;2022-12-07T02:49:27;96080.22;;;4.47;70.12
12757;BME280;31601;48.042;12.240;2022-12-07T02:51:55;96081.41;;;4.53;69.72
12757;BME280;31601;48.042;12.240;2022-12-07T02:54:21;96082.34;;;4.52;69.87
12757;BME280;31601;48.042;12.240;2022-12-07T02:56:52;96071.88;;;4.61;69.43
12757;BME280;31601;48.042;12.240;2022-12-07T02:59:33;96081.22;;;4.72;69.57
12757;BME280;31601;48.042;12.240;2022-12-07T03:02:11;96074.34;;;4.45;70.10
12757;BME280;31601;48.042;12.240;2022-12-07T03:04:52;96073.53;;;4.44;70.33
12757;BME280;31601;48.042;12.240;2022-12-07T03:07:29;96085.56;;;4.45;69.81
12757;BME280;31601;48.042;12.240;2022-12-07T03:10:02;96086.44;;;4.36;69.88
12757;BME280;31601;48.042;12.240;2022-12-07T03:12:42;96079.78;;;4.16;70.14
12757;BME280;31601;48.042;12.240;2022-12-07T03:15:18;96078.72;;;4.08;70.71
12757;BME280;31601;48.042;12.240;2022-12-07T03:17:49;96087.69;;;4.14;70.71
12757;BME280;31601;48.042;12.240;2022-12-07T03:20:19;96074.19;;;4.10;70.23
12757;BME280;31601;48.042;12.240;2022-12-07T03:22:47;96073.91;;;4.32;70.12
12757;BME280;31601;48.042;12.240;2022-12-07T03:25:17;96078.00;;;4.34;69.86
12757;BME280;31601;48.042;12.240;2022-12-07T03:27:48;96073.22;;;4.47;69.43
12757;BME280;31601;48.042;12.240;2022-12-07T03:30:20;96080.25;;;4.55;69.27
12757;BME280;31601;48.042;12.240;2022-12-07T03:32:52;96076.94;;;4.45;69.64
12757;BME280;31601;48.042;12.240;2022-12-07T03:35:25;96076.91;;;4.09;70.64
12757;BME280;31601;48.042;12.240;2022-12-07T03:37:55;96075.00;;;4.29;69.94
12757;BME280;31601;48.042;12.240;2022-12-07T03:40:27;96068.78;;;4.22;69.99
12757;BME280;31601;48.042;12.240;2022-12-07T03:42:57;96070.47;;;4.49;69.48
12757;BME280;31601;48.042;12.240;2022-12-07T03:45:32;96070.03;;;4.54;69.18
12757;BME280;31601;48.042;12.240;2022-12-07T03:48:03;96061.72;;;4.50;69.67
12757;BME280;31601;48.042;12.240;2022-12-07T03:50:38;96059.63;;;4.54;69.02
12757;BME280;31601;48.042;12.240;2022-12-07T03:53:11;96066.16;;;4.58;69.19
12757;BME280;31601;48.042;12.240;2022-12-07T03:55:42;96066.72;;;4.43;69.36
12757;BME280;31601;48.042;12.240;2022-12-07T03:58:12;96066.31;;;4.38;69.27
12757;BME280;31601;48.042;12.240;2022-12-07T04:00:43;96066.63;;;4.53;69.17
12757;BME280;31601;48.042;12.240;2022-12-07T04:03:10;96060.78;;;4.33;69.36
12757;BME280;31601;48.042;12.240;2022-12-07T04:05:38;96060.81;;;4.41;69.22
12757;BME280;31601;48.042;12.240;2022-12-07T04:08:05;96057.66;;;4.11;70.01
12757;BME280;31601;48.042;12.240;2022-12-07T04:10:32;96054.31;;;4.19;69.89
12757;BME280;31601;48.042;12.240;2022-12-07T04:12:59;96050.63;;;4.22;69.56
12757;BME280;31601;48.042;12.240;2022-12-07T04:15:27;96055.19;;;4.10;70.42
12757;BME280;31601;48.042;12.240;2022-12-07T04:17:55;96060.91;;;4.32;69.96
12757;BME280;31601;48.042;12.240;2022-12-07T04:20:23;96050.31;;;4.25;69.74
12757;BME280;31601;48.042;12.240;2022-12-07T04:22:50;96060.09;;;4.31;69.59
12757;BME280;31601;48.042;12.240;2022-12-07T04:25:17;96052.63;;;4.28;69.67
12757;BME280;31601;48.042;12.240;2022-12-07T04:27:43;96059.81;;;4.34;69.57
12757;BME280;31601;48.042;12.240;2022-12-07T04:30:11;96059.28;;;4.48;69.09
12757;BME280;31601;48.042;12.240;2022-12-07T04:32:38;96054.88;;;4.49;69.24
12757;BME280;31601;48.042;12.240;2022-12-07T04:35:08;96055.63;;;4.59;69.18
12757;BME280;31601;48.042;12.240;2022-12-07T04:37:34;96054.81;;;4.59;69.28
12757;BME280;31601;48.042;12.240;2022-12-07T04:40:06;96058.72;;;4.63;69.12
12757;BME280;31601;48.042;12.240;2022-12-07T04:42:36;96055.19;;;4.64;69.60
12757;BME280;31601;48.042;12.240;2022-12-07T04:45:05;96055.81;;;4.66;69.16
12757;BME280;31601;48.042;12.240;2022-12-07T04:47:32;96059.19;;;4.58;69.37
12757;BME280;31601;48.042;12.240;2022-12-07T04:49:59;96053.84;;;4.60;69.70
12757;BME280;31601;48.042;12.240;2022-12-07T04:52:29;96061.31;;;4.63;69.86
12757;BME280;31601;48.042;12.240;2022-12-07T04:54:55;96065.25;;;4.67;69.86
12757;BME280;31601;48.042;12.240;2022-12-07T04:57:22;96061.31;;;4.63;69.69
12757;BME280;31601;48.042;12.240;2022-12-07T04:59:49;96056.13;;;4.63;69.83
12757;BME280;31601;48.042;12.240;2022-12-07T05:02:16;96055.53;;;4.69;69.47
12757;BME280;31601;48.042;12.240;2022-12-07T05:04:44;96055.22;;;4.72;69.58
12757;BME280;31601;48.042;12.240;2022-12-07T05:07:11;96053.63;;;4.71;69.40
12757;BME280;31601;48.042;12.240;2022-12-07T05:09:40;96060.41;;;4.72;69.20
12757;BME280;31601;48.042;12.240;2022-12-07T05:12:06;96054.41;;;4.72;69.70
12757;BME280;31601;48.042;12.240;2022-12-07T05:14:33;96053.47;;;4.73;69.46
12757;BME280;31601;48.042;12.240;2022-12-07T05:17:00;96052.28;;;4.67;69.77
12757;BME280;31601;48.042;12.240;2022-12-07T05:19:27;96057.81;;;4.72;69.47
12757;BME280;31601;48.042;12.240;2022-12-07T05:21:53;96053.97;;;4.76;69.44
12757;BME280;31601;48.042;12.240;2022-12-07T05:24:20;96052.03;;;4.78;69.52
12757;BME280;31601;48.042;12.240;2022-12-07T05:26:48;96059.97;;;4.77;69.20
12757;BME280;31601;48.042;12.240;2022-12-07T05:29:16;96052.78;;;4.71;69.48
12757;BME280;31601;48.042;12.240;2022-12-07T05:31:44;96057.03;;;4.72;69.67
12757;BME280;31601;48.042;12.240;2022-12-07T05:34:12;96057.66;;;4.74;69.71
12757;BME280;31601;48.042;12.240;2022-12-07T05:36:38;96062.06;;;4.73;69.55
12757;BME280;31601;48.042;12.240;2022-12-07T05:39:05;96055.22;;;4.72;69.48
12757;BME280;31601;48.042;12.240;2022-12-07T05:41:32;96052.47;;;4.74;69.70
12757;BME280;31601;48.042;12.240;2022-12-07T05:44:18;96061.56;;;4.70;69.53
12757;BME280;31601;48.042;12.240;2022-12-07T05:46:45;96055.53;;;4.69;69.91
12757;BME280;31601;48.042;12.240;2022-12-07T05:49:12;96057.47;;;4.67;70.08
12757;BME280;31601;48.042;12.240;2022-12-07T05:51:39;96051.66;;;4.73;69.56
12757;BME280;31601;48.042;12.240;2022-12-07T05:54:05;96047.72;;;4.69;69.91
12757;BME280;31601;48.042;12.240;2022-12-07T05:56:32;96053.47;;;4.73;69.64
12757;BME280;31601;48.042;12.240;2022-12-07T05:58:59;96059.81;;;4.78;69.80
12757;BME280;31601;48.042;12.240;2022-12-07T06:01:45;96065.31;;;4.75;69.73
12757;BME280;31601;48.042;12.240;2022-12-07T06:04:12;96063.72;;;4.74;69.57
12757;BME280;31601;48.042;12.240;2022-12-07T06:06:40;96061.75;;;4.76;69.82
12757;BME280;31601;48.042;12.240;2022-12-07T06:09:07;96068.75;;;4.76;69.62
12757;BME280;31601;48.042;12.240;2022-12-07T06:11:34;96061.75;;;4.76;70.00
12757;BME280;31601;48.042;12.240;2022-12-07T06:14:18;96065.78;;;4.71;70.00
12757;BME280;31601;48.042;12.240;2022-12-07T06:16:47;96065.31;;;4.75;69.92
12757;BME280;31601;48.042;12.240;2022-12-07T06:19:13;96071.81;;;4.71;69.81
12757;BME280;31601;48.042;12.240;2022-12-07T06:21:41;96072.03;;;4.60;69.95
12757;BME280;31601;48.042;12.240;2022-12-07T06:24:09;96070.94;;;4.26;70.86
12757;BME280;31601;48.042;12.240;2022-12-07T06:26:37;96081.19;;;4.28;70.65
12757;BME280;31601;48.042;12.240;2022-12-07T06:29:04;96086.88;;;4.32;70.51
12757;BME280;31601;48.042;12.240;2022-12-07T06:31:32;96087.91;;;4.21;70.38
12757;BME280;31601;48.042;12.240;2022-12-07T06:34:02;96084.50;;;4.38;69.89
12757;BME280;31601;48.042;12.240;2022-12-07T06:36:30;96087.50;;;4.43;69.91
12757;BME280;31601;48.042;12.240;2022-12-07T06:38:57;96079.16;;;4.40;70.28
12757;BME280;31601;48.042;12.240;2022-12-07T06:41:24;96079.41;;;4.46;69.98
12757;BME280;31601;48.042;12.240;2022-12-07T06:43:51;96069.66;;;4.48;70.37
12757;BME280;31601;48.042;12.240;2022-12-07T06:46:18;96083.91;;;4.44;70.71
12757;BME280;31601;48.042;12.240;2022-12-07T06:48:46;96088.22;;;4.54;70.49
12757;BME280;31601;48.042;12.240;2022-12-07T06:51:15;96083.63;;;4.47;70.76
12757;BME280;31601;48.042;12.240;2022-12-07T06:53:42;96092.91;;;4.50;70.65
12757;BME280;31601;48.042;12.240;2022-12-07T06:56:09;96100.09;;;4.56;70.50
12757;BME280;31601;48.042;12.240;2022-12-07T06:58:36;96093.19;;;4.47;70.94
12757;BME280;31601;48.042;12.240;2022-12-07T07:01:08;96099.19;;;4.47;70.43
12757;BME280;31601;48.042;12.240;2022-12-07T07:03:37;96092.97;;;4.40;71.08
12757;BME280;31601;48.042;12.240;2022-12-07T07:06:05;96102.78;;;4.46;70.69
12757;BME280;31601;48.042;12.240;2022-12-07T07:08:34;96099.19;;;4.47;70.97
12757;BME280;31601;48.042;12.240;2022-12-07T07:11:02;96101.50;;;4.51;70.63
12757;BME280;31601;48.042;12.240;2022-12-07T07:13:29;96108.63;;;4.48;70.96
12757;BME280;31601;48.042;12.240;2022-12-07T07:15:56;96103.59;;;4.47;70.80
12757;BME280;31601;48.042;12.240;2022-12-07T07:18:23;96107.53;;;4.51;71.18
12757;BME280;31601;48.042;12.240;2022-12-07T07:20:51;96099.50;;;4.44;71.05
12757;BME280;31601;48.042;12.240;2022-12-07T07:23:18;96107.69;;;4.50;70.98
12757;BME280;31601;48.042;12.240;2022-12-07T07:25:47;96108.69;;;4.57;70.90
12757;BME280;31601;48.042;12.240;2022-12-07T07:28:14;96103.78;;;4.54;71.02
12757;BME280;31601;48.042;12.240;2022-12-07T07:30:42;96108.41;;;4.60;71.08
12757;BME280;31601;48.042;12.240;2022-12-07T07:33:09;96108.69;;;4.57;71.03
12757;BME280;31601;48.042;12.240;2022-12-07T07:35:38;96108.41;;;4.60;71.13
12757;BME280;31601;48.042;12.240;2022-12-07T07:38:05;96115.53;;;4.58;71.24
12757;BME280;31601;48.042;12.240;2022-12-07T07:40:32;96114.28;;;4.62;71.10
12757;BME280;31601;48.042;12.240;2022-12-07T07:43:00;96117.09;;;4.69;71.00
12757;BME280;31601;48.042;12.240;2022-12-07T07:45:27;96114.94;;;4.64;71.10
12757;BME280;31601;48.042;12.240;2022-12-07T07:47:54;96120.94;;;4.64;71.04
12757;BME280;31601;48.042;12.240;2022-12-07T07:50:21;96117.84;;;4.61;71.11
12757;BME280;31601;48.042;12.240;2022-12-07T07:52:49;96119.53;;;4.70;71.41
12757;BME280;31601;48.042;12.240;2022-12-07T07:55:16;96120.59;;;4.77;71.19
12757;BME280;31601;48.042;12.240;2022-12-07T07:57:43;96120.28;;;4.80;71.34
12757;BME280;31601;48.042;12.240;2022-12-07T08:00:14;96125.78;;;4.77;71.17
12757;BME280;31601;48.042;12.240;2022-12-07T08:02:41;96121.84;;;4.73;71.11
12757;BME280;31601;48.042;12.240;2022-12-07T08:05:10;96120.13;;;4.82;71.12
12757;BME280;31601;48.042;12.240;2022-12-07T08:07:37;96115.88;;;4.81;71.30
12757;BME280;31601;48.042;12.240;2022-12-07T08:10:05;96121.59;;;4.84;71.45
12757;BME280;31601;48.042;12.240;2022-12-07T08:12:35;96119.38;;;4.90;71.35
12757;BME280;31601;48.042;12.240;2022-12-07T08:15:03;96121.53;;;4.76;71.38
12757;BME280;31601;48.042;12.240;2022-12-07T08:17:32;96116.47;;;4.93;70.83
12757;BME280;31601;48.042;12.240;2022-12-07T08:19:59;96118.09;;;4.94;70.87
12757;BME280;31601;48.042;12.240;2022-12-07T08:22:26;96122.38;;;5.03;70.84
12757;BME280;31601;48.042;12.240;2022-12-07T08:24:52;96123.69;;;4.99;70.94
12757;BME280;31601;48.042;12.240;2022-12-07T08:27:20;96120.47;;;5.05;70.54
12757;BME280;31601;48.042;12.240;2022-12-07T08:29:52;96127.97;;;5.08;70.48
12757;BME280;31601;48.042;12.240;2022-12-07T08:32:20;96125.44;;;4.98;70.89
12757;BME280;31601;48.042;12.240;2022-12-07T08:34:48;96117.25;;;5.11;70.65
12757;BME280;31601;48.042;12.240;2022-12-07T08:37:15;96131.22;;;5.10;70.43
12757;BME280;31601;48.042;12.240;2022-12-07T08:39:42;96124.75;;;5.14;70.28
12757;BME280;31601;48.042;12.240;2022-12-07T08:42:08;96124.91;;;5.13;70.54
12757;BME280;31601;48.042;12.240;2022-12-07T08:44:36;96124.44;;;5.17;70.39
12757;BME280;31601;48.042;12.240;2022-12-07T08:47:05;96123.34;;;5.28;70.09
12757;BME280;31601;48.042;12.240;2022-12-07T08:49:36;96123.88;;;5.32;70.10
12757;BME280;31601;48.042;12.240;2022-12-07T08:52:06;96126.19;;;5.35;69.99
12757;BME280;31601;48.042;12.240;2022-12-07T08:54:33;96129.88;;;5.32;69.57
12757;BME280;31601;48.042;12.240;2022-12-07T08:57:02;96122.44;;;5.37;69.94
12757;BME280;31601;48.042;12.240;2022-12-07T08:59:29;96124.78;;;5.49;69.60
12757;BME280;31601;48.042;12.240;2022-12-07T09:01:57;96122.03;;;5.50;69.28
12757;BME280;31601;48.042;12.240;2022-12-07T09:04:24;96125.56;;;5.41;69.74
12757;BME280;31601;48.042;12.240;2022-12-07T09:06:52;96126.56;;;5.48;69.69
12757;BME280;31601;48.042;12.240;2022-12-07T09:09:21;96130.81;;;5.49;69.62
12757;BME280;31601;48.042;12.240;2022-12-07T09:11:48;96129.22;;;5.56;68.71
12757;BME280;31601;48.042;12.240;2022-12-07T09:14:15;96122.94;;;5.67;68.73
12757;BME280;31601;48.042;12.240;2022-12-07T09:16:42;96128.63;;;5.71;68.76
12757;BME280;31601;48.042;12.240;2022-12-07T09:19:09;96127.84;;;5.79;68.38
12757;BME280;31601;48.042;12.240;2022-12-07T09:21:37;96122.94;;;5.67;68.79
12757;BME280;31601;48.042;12.240;2022-12-07T09:24:04;96132.91;;;5.80;68.36
12757;BME280;31601;48.042;12.240;2022-12-07T09:26:32;96128.75;;;5.61;68.31
12757;BME280;31601;48.042;12.240;2022-12-07T09:29:01;96124.28;;;5.80;68.11
12757;BME280;31601;48.042;12.240;2022-12-07T09:31:28;96124.81;;;5.91;68.43
12757;BME280;31601;48.042;12.240;2022-12-07T09:33:55;96121.69;;;5.80;68.58
12757;BME280;31601;48.042;12.240;2022-12-07T09:36:22;96121.59;;;5.98;68.22
12757;BME280;31601;48.042;12.240;2022-12-07T09:38:49;96126.44;;;5.92;68.40
12757;BME280;31601;48.042;12.240;2022-12-07T09:41:16;96118.88;;;6.07;67.64
12757;BME280;31601;48.042;12.240;2022-12-07T09:43:45;96124.44;;;6.13;68.21
12757;BME280;31601;48.042;12.240;2022-12-07T09:46:14;96121.69;;;6.22;68.01
12757;BME280;31601;48.042;12.240;2022-12-07T09:48:44;96119.91;;;6.31;67.47
12757;BME280;31601;48.042;12.240;2022-12-07T09:51:16;96117.25;;;6.15;67.04
12757;BME280;31601;48.042;12.240;2022-12-07T09:53:44;96115.66;;;6.30;66.71
12757;BME280;31601;48.042;12.240;2022-12-07T09:56:12;96122.69;;;6.30;66.86
12757;BME280;31601;48.042;12.240;2022-12-07T09:58:41;96120.72;;;6.32;66.74
12757;BME280;31601;48.042;12.240;2022-12-07T10:01:14;96114.38;;;6.34;66.23
12757;BME280;31601;48.042;12.240;2022-12-07T10:03:45;96114.75;;;6.48;66.41
12757;BME280;31601;48.042;12.240;2022-12-07T10:06:16;96113.09;;;6.38;65.87
12757;BME280;31601;48.042;12.240;2022-12-07T10:08:43;96113.75;;;6.40;65.62
12757;BME280;31601;48.042;12.240;2022-12-07T10:11:11;96109.22;;;6.51;65.82
12757;BME280;31601;48.042;12.240;2022-12-07T10:13:41;96112.13;;;6.56;65.36
12757;BME280;31601;48.042;12.240;2022-12-07T10:16:31;96110.00;;;6.51;65.52
12757;BME280;31601;48.042;12.240;2022-12-07T10:19:19;96108.56;;;6.57;65.33
12757;BME280;31601;48.042;12.240;2022-12-07T10:22:00;96101.56;;;6.49;64.80
12757;BME280;31601;48.042;12.240;2022-12-07T10:24:27;96111.78;;;6.42;64.24
12757;BME280;31601;48.042;12.240;2022-12-07T10:26:54;96105.78;;;6.58;64.28
12757;BME280;31601;48.042;12.240;2022-12-07T10:29:23;96103.31;;;6.49;64.71
12757;BME280;31601;48.042;12.240;2022-12-07T10:31:54;96099.09;;;6.64;64.60
12757;BME280;31601;48.042;12.240;2022-12-07T10:34:24;96099.59;;;6.59;64.26
12757;BME280;31601;48.042;12.240;2022-12-07T10:36:52;96097.50;;;6.63;63.54
12757;BME280;31601;48.042;12.240;2022-12-07T10:39:20;96099.41;;;6.61;63.56
12757;BME280;31601;48.042;12.240;2022-12-07T10:41:54;96093.06;;;6.72;63.28
12757;BME280;31601;48.042;12.240;2022-12-07T10:44:23;96092.09;;;6.81;63.32
12757;BME280;31601;48.042;12.240;2022-12-07T10:47:03;96089.50;;;6.73;63.77
12757;BME280;31601;48.042;12.240;2022-12-07T10:50:02;96090.81;;;6.85;63.67
12757;BME280;31601;48.042;12.240;2022-12-07T10:55:39;96087.53;;;6.99;62.73
12757;BME280;31601;48.042;12.240;2022-12-07T10:58:22;96083.63;;;6.87;62.60
12757;BME280;31601;48.042;12.240;2022-12-07T11:01:00;96084.59;;;6.94;62.45
12757;BME280;31601;48.042;12.240;2022-12-07T11:03:49;96079.38;;;7.03;62.08
12757;BME280;31601;48.042;12.240;2022-12-07T11:06:26;96083.31;;;6.98;62.13
12757;BME280;31601;48.042;12.240;2022-12-07T11:09:03;96075.13;;;7.10;62.35
12757;BME280;31601;48.042;12.240;2022-12-07T11:11:34;96064.66;;;7.18;62.55
12757;BME280;31601;48.042;12.240;2022-12-07T11:14:12;96069.75;;;7.11;62.38
12757;BME280;31601;48.042;12.240;2022-12-07T11:16:51;96067.94;;;7.20;62.04
12757;BME280;31601;48.042;12.240;2022-12-07T11:19:34;96053.91;;;7.21;62.13
12757;BME280;31601;48.042;12.240;2022-12-07T11:22:11;96057.47;;;7.28;61.41
12757;BME280;31601;48.042;12.240;2022-12-07T11:24:46;96056.50;;;7.29;61.97
12757;BME280;31601;48.042;12.240;2022-12-07T11:27:23;96047.66;;;7.30;61.70
12757;BME280;31601;48.042;12.240;2022-12-07T11:29:59;96046.75;;;7.07;62.12
12757;BME280;31601;48.042;12.240;2022-12-07T11:32:42;96042.19;;;7.17;61.51
12757;BME280;31601;48.042;12.240;2022-12-07T11:35:24;96042.00;;;7.19;61.50
12757;BME280;31601;48.042;12.240;2022-12-07T11:37:59;96045.09;;;7.22;61.53
12757;BME280;31601;48.042;12.240;2022-12-07T11:40:30;96037.78;;;7.17;61.61
12757;BME280;31601;48.042;12.240;2022-12-07T11:43:04;96030.41;;;7.21;61.13
12757;BME280;31601;48.042;12.240;2022-12-07T11:45:34;96033.03;;;7.21;61.41
12757;BME280;31601;48.042;12.240;2022-12-07T11:48:03;96034.00;;;7.28;61.10
12757;BME280;31601;48.042;12.240;2022-12-07T11:50:38;96035.63;;;7.29;61.23
12757;BME280;31601;48.042;12.240;2022-12-07T11:53:12;96032.69;;;7.32;61.47
12757;BME280;31601;48.042;12.240;2022-12-07T11:55:43;96024.66;;;7.42;61.15
12757;BME280;31601;48.042;12.240;2022-12-07T11:58:20;96024.00;;;7.40;60.88
12757;BME280;31601;48.042;12.240;2022-12-07T12:00:55;96019.59;;;7.41;61.07
12757;BME280;31601;48.042;12.240;2022-12-07T12:03:32;96015.88;;;7.27;60.92
12757;BME280;31601;48.042;12.240;2022-12-07T12:06:02;96013.44;;;7.25;61.12
12757;BME280;31601;48.042;12.240;2022-12-07T12:08:32;96013.44;;;7.25;60.59
12757;BME280;31601;48.042;12.240;2022-12-07T12:11:10;96016.09;;;7.09;60.90
12757;BME280;31601;48.042;12.240;2022-12-07T12:14:08;96006.13;;;7.21;60.81
12757;BME280;31601;48.042;12.240;2022-12-07T12:19:41;96007.94;;;7.20;60.84
12757;BME280;31601;48.042;12.240;2022-12-07T12:22:15;96001.78;;;6.96;60.92
12757;BME280;31601;48.042;12.240;2022-12-07T12:24:45;96005.72;;;6.92;61.31
12757;BME280;31601;48.042;12.240;2022-12-07T12:27:23;96009.09;;;7.01;61.36
12757;BME280;31601;48.042;12.240;2022-12-07T12:29:54;95999.13;;;7.13;61.18
12757;BME280;31601;48.042;12.240;2022-12-07T12:32:23;95999.78;;;7.15;61.20
12757;BME280;31601;48.042;12.240;2022-12-07T12:35:03;96000.09;;;7.20;61.32
12757;BME280;31601;48.042;12.240;2022-12-07T12:37:51;95998.59;;;7.26;60.94
12757;BME280;31601;48.042;12.240;2022-12-07T12:40:42;95993.28;;;7.11;60.74
12757;BME280;31601;48.042;12.240;2022-12-07T12:43:48;95998.75;;;7.32;60.31
12757;BME280;31601;48.042;12.240;2022-12-07T12:46:45;95986.22;;;7.28;60.40
12757;BME280;31601;48.042;12.240;2022-12-07T12:49:35;95992.19;;;7.37;59.69
12757;BME280;31601;48.042;12.240;2022-12-07T12:58:29;95989.91;;;7.33;59.57
12757;BME280;31601;48.042;12.240;2022-12-07T13:04:24;95990.25;;;7.30;59.50
12757;BME280;31601;48.042;12.240;2022-12-07T13:06:51;95986.69;;;7.31;59.38
12757;BME280;31601;48.042;12.240;2022-12-07T13:09:23;95986.69;;;7.31;59.59
12757;BME280;31601;48.042;12.240;2022-12-07T13:11:59;95985.56;;;7.26;59.56
12757;BME280;31601;48.042;12.240;2022-12-07T13:14:57;95983.78;;;7.18;59.20
12757;BME280;31601;48.042;12.240;2022-12-07T13:17:59;95984.25;;;7.30;59.03
12757;BME280;31601;48.042;12.240;2022-12-07T13:20:55;95983.91;;;7.33;59.02
12757;BME280;31601;48.042;12.240;2022-12-07T13:23:29;95978.97;;;7.38;58.74
12757;BME280;31601;48.042;12.240;2022-12-07T13:26:13;95973.81;;;7.30;58.43
12757;BME280;31601;48.042;12.240;2022-12-07T13:28:44;95970.06;;;7.24;59.00
12757;BME280;31601;48.042;12.240;2022-12-07T13:31:30;95971.88;;;7.24;59.03
12757;BME280;31601;48.042;12.240;2022-12-07T13:33:59;95973.34;;;7.26;58.82
12757;BME280;31601;48.042;12.240;2022-12-07T13:36:27;95968.13;;;7.18;58.90